Flight Track Log - Related Links

Times and Time Zones

All times are in EDT time to prevent confusion due to time zone crossing. See the N231CW flight status page for this flight to view local times or setup timezone preferences in your user account.

Time Position Orientation Groundspeed Altitude Reporting Facility
EDT Latitude Longitude Course Direction KTS MPH feet Rate Location/Type
Mon 04:42:16 PM 34.8197 -109.9081 124° Southeast 131 151 9,000  Level Albuquerque Center
Mon 04:43:17 PM 34.8003 -109.8725 124° Southeast 131 151 9,600 634 Climbing Albuquerque Center
Mon 04:44:19 PM 34.7772 -109.8317 124° Southeast 131 151 10,300 629 Climbing Albuquerque Center
Mon 04:45:21 PM 34.7564 -109.7972 126° Southeast 132 152 10,900 488 Climbing Albuquerque Center
Mon 04:46:22 PM 34.7342 -109.7594 126° Southeast 131 151 11,300 585 Climbing Albuquerque Center
Mon 04:47:24 PM 34.7217 -109.7181 110° East 130 150 12,100 726 Climbing Albuquerque Center
Mon 04:48:26 PM 34.7025 -109.6872 127° Southeast 126 145 12,800 683 Climbing Albuquerque Center
Mon 04:49:27 PM 34.6825 -109.6475 121° Southeast 123 142 13,500 634 Climbing Albuquerque Center
Mon 04:50:29 PM 34.6653 -109.6133 121° Southeast 123 142 14,100 581 Climbing Albuquerque Center
Mon 04:51:31 PM 34.6467 -109.5719 119° Southeast 124 143 14,700 488 Climbing Albuquerque Center
Mon 04:52:32 PM 34.6275 -109.5339 121° Southeast 131 151 15,100 146 Climbing Albuquerque Center
Mon 04:53:34 PM 34.6067 -109.4889 119° Southeast 149 171 15,000  Descending Albuquerque Center
Mon 04:54:36 PM 34.5786 -109.4378 124° Southeast 160 184 15,100  Climbing Albuquerque Center
Mon 04:55:37 PM 34.5533 -109.3908 123° Southeast 166 191 15,000  Descending Albuquerque Center
Mon 04:56:39 PM 34.5244 -109.3367 123° Southeast 170 196 15,100 48 Climbing Albuquerque Center
Mon 04:57:41 PM 34.5006 -109.2875 121° Southeast 174 200 15,100  Level Albuquerque Center
Mon 04:58:42 PM 34.4792 -109.2308 115° Southeast 168 193 15,100  Level Albuquerque Center
Mon 04:59:45 PM 34.4611 -109.1817 114° Southeast 166 191 15,100 -48 Level Albuquerque Center
Mon 05:00:46 PM 34.4433 -109.1328 114° Southeast 167 192 15,000  Descending Albuquerque Center
Mon 05:01:48 PM 34.4303 -109.0722 105° East 165 190 15,100 48 Climbing Albuquerque Center
Mon 05:02:50 PM 34.4244 -109.0178 97° East 168 193 15,100 -97 Level Albuquerque Center
Mon 05:03:52 PM 34.4214 -108.9539 93° East 170 196 14,900 -98 Descending Albuquerque Center
Mon 05:04:53 PM 34.4203 -108.8978 91° East 172 198 14,900 49 Level Albuquerque Center
Mon 05:05:55 PM 34.4178 -108.8317 93° East 174 200 15,000  Climbing Albuquerque Center
Mon 05:06:57 PM 34.4158 -108.7753 92° East 174 200 14,900 -49 Descending Albuquerque Center
Mon 05:07:58 PM 34.4139 -108.7117 92° East 172 198 14,900 49 Level Albuquerque Center
Mon 05:09:00 PM 34.4122 -108.6569 92° East 171 197 15,000  Climbing Albuquerque Center
Mon 05:10:02 PM 34.4108 -108.5933 91° East 170 196 14,900 48 Descending Albuquerque Center
Mon 05:11:04 PM 34.4386 -108.5600 45° Northeast 176 203 15,100 49 Climbing Albuquerque Center
Mon 05:12:05 PM 34.4844 -108.5772 343° North 177 204 15,000 -49 Descending Albuquerque Center
Mon 05:13:07 PM 34.5367 -108.5931 346° North 175 201 15,000  Level Albuquerque Center
Mon 05:14:09 PM 34.5806 -108.6117 341° North 174 200 15,000 -48 Level Albuquerque Center
Mon 05:15:11 PM 34.6331 -108.6311 343° North 176 203 14,900 -49 Descending Albuquerque Center
Mon 05:16:12 PM 34.6772 -108.6492 341° North 175 201 14,900  Level Albuquerque Center
Mon 05:17:14 PM 34.7303 -108.6664 345° North 175 201 14,900  Level Albuquerque Center
Mon 05:18:16 PM 34.7742 -108.6844 341° North 175 201 14,900  Level Albuquerque Center
Mon 05:19:18 PM 34.8175 -108.6989 345° North 171 197 14,900 49 Level Albuquerque Center
Mon 05:20:19 PM 34.8689 -108.7092 351° North 168 193 15,000  Climbing Albuquerque Center
Mon 05:21:21 PM 34.9142 -108.7094 360° North 168 193 14,900 -48 Descending Albuquerque Center
Mon 05:22:23 PM 34.9542 -108.6900 22° Northeast 162 186 14,900  Level Albuquerque Center
Mon 05:23:24 PM 34.9797 -108.6564 47° Northeast 145 167 14,900 49 Level Albuquerque Center
Mon 05:24:26 PM 35.0069 -108.6122 53° Northeast 146 168 15,000  Climbing Albuquerque Center
Mon 05:25:28 PM 35.0253 -108.5614 66° East 160 184 14,900  Descending Albuquerque Center
Mon 05:26:29 PM 35.0469 -108.4992 67° East 175 201 15,000  Climbing Albuquerque Center
Mon 05:27:31 PM 35.0544 -108.4489 80° East 163 188 14,900 -48 Descending Albuquerque Center
Mon 05:28:33 PM 35.0569 -108.4000 86° East 156 180 14,900  Level Albuquerque Center
Mon 05:29:34 PM 35.0564 -108.3436 91° East 151 174 14,900  Level Albuquerque Center
Mon 05:30:36 PM 35.0581 -108.2939 88° East 152 175 14,900  Level Albuquerque Center
Mon 05:31:38 PM 35.0578 -108.2353 90° East 155 178 14,900  Level Albuquerque Center
Mon 05:32:39 PM 35.0603 -108.1872 86° East 150 173 14,900  Level Albuquerque Center
Mon 05:33:41 PM 35.0622 -108.1308 88° East 150 173 14,900 -48 Level Albuquerque Center
Mon 05:34:43 PM 35.0633 -108.0822 88° East 150 173 14,800 -49 Descending Albuquerque Center
Mon 05:35:44 PM 35.0639 -108.0339 89° East 149 171 14,800  Level Albuquerque Center
Mon 05:36:46 PM 35.0617 -107.9769 93° East 151 174 14,800  Level Albuquerque Center
Mon 05:37:48 PM 35.0589 -107.9214 93° East 165 190 14,800  Level Albuquerque Center
Mon 05:38:49 PM 35.0594 -107.8564 89° East 170 196 14,800  Level Albuquerque Center
Mon 05:39:51 PM 35.0589 -107.8061 91° East 173 199 14,800  Level Albuquerque Center
Mon 05:40:53 PM 35.0589 -107.7361 90° East 173 199 14,800  Level Albuquerque Center
Mon 05:41:54 PM 35.0589 -107.6781 90° East 172 198 14,800  Level Albuquerque Center
Mon 05:42:56 PM 35.0581 -107.6206 91° East 170 196 14,800  Level Albuquerque Center
Mon 05:43:58 PM 35.0594 -107.5639 88° East 168 193 14,800  Level Albuquerque Center
Mon 05:44:48 PM 35.0667 -107.5117 80° East 167 192 14,800  Level Albuquerque Center
Mon 05:45:43 PM 35.0619 -107.4586 96° East 166 191 14,800 103 Level Albuquerque Center
Mon 05:46:44 PM 35.0597 -107.4072 93° East 157 181 15,000 99 Climbing Albuquerque Center
Mon 05:47:44 PM 35.0586 -107.3506 91° East 162 186 15,000  Level Albuquerque Center
Mon 05:48:51 PM 35.0425 -107.2925 109° East 174 200 15,000  Level Albuquerque Center
Mon 05:49:51 PM 35.0172 -107.2442 123° Southeast 174 200 15,000 -50 Level Albuquerque Center
Mon 05:50:52 PM 34.9908 -107.1889 120° Southeast 175 201 14,900 -49 Descending Albuquerque Center
Mon 05:51:53 PM 34.9689 -107.1347 116° Southeast 177 204 14,900 50 Level Albuquerque Center
Mon 05:52:53 PM 34.9469 -107.0808 116° Southeast 180 207 15,000 50 Climbing Albuquerque Center
Mon 05:53:54 PM 34.9250 -107.0267 116° Southeast 174 200 15,000  Level Albuquerque Center
Mon 05:55:01 PM 34.9019 -106.9678 116° Southeast 171 197 15,000 -47 Level Albuquerque Center
Mon 05:56:01 PM 34.8800 -106.9139 116° Southeast 174 200 14,900 -50 Descending Albuquerque Center
Mon 05:57:02 PM 34.8583 -106.8625 117° Southeast 171 197 14,900  Level Albuquerque Center
Mon 05:58:02 PM 34.8386 -106.8106 115° Southeast 169 194 14,900 50 Level Albuquerque Center
Mon 05:59:03 PM 34.8172 -106.7619 118° Southeast 168 193 15,000  Climbing Albuquerque Center
Mon 06:00:10 PM 34.7942 -106.7031 115° Southeast 169 194 14,900  Descending Albuquerque Center
Mon 06:01:10 PM 34.7725 -106.6517 117° Southeast 169 194 15,000  Climbing Albuquerque Center
Mon 06:02:26 PM 34.7469 -106.5872 116° Southeast 168 193 14,900  Descending Albuquerque Center
Mon 06:03:27 PM 34.7244 -106.5342 117° Southeast 174 200 15,000 49 Climbing Albuquerque Center
Mon 06:04:29 PM 34.7050 -106.4839 115° Southeast 169 194 15,000  Level Albuquerque Center
Mon 06:05:30 PM 34.6836 -106.4328 117° Southeast 169 194 15,000  Level Albuquerque Center
Mon 06:06:31 PM 34.6619 -106.3831 118° Southeast 168 193 15,000  Level Albuquerque Center
Mon 06:07:33 PM 34.6408 -106.3342 118° Southeast 165 190 15,000  Level Albuquerque Center
Mon 06:08:34 PM 34.6219 -106.2842 115° Southeast 163 188 15,000 -49 Level Albuquerque Center
Mon 06:09:36 PM 34.5981 -106.2264 117° Southeast 162 186 14,900  Descending Albuquerque Center
Mon 06:10:37 PM 34.5811 -106.1775 113° Southeast 158 182 15,000 49 Climbing Albuquerque Center
Mon 06:11:38 PM 34.5689 -106.1278 107° East 155 178 15,000  Level Albuquerque Center
Mon 06:12:40 PM 34.5531 -106.0786 111° Southeast 156 180 15,000 -49 Level Albuquerque Center
Mon 06:13:41 PM 34.5294 -106.0286 120° Southeast 165 190 14,900  Descending Albuquerque Center
Mon 06:14:43 PM 34.5058 -105.9781 120° Southeast 170 196 15,000 49 Climbing Albuquerque Center
Mon 06:15:44 PM 34.4886 -105.9247 111° Southeast 169 194 15,000 -49 Level Albuquerque Center
Mon 06:16:46 PM 34.4625 -105.8778 124° Southeast 167 192 14,900  Descending Albuquerque Center
Mon 06:17:47 PM 34.4361 -105.8317 125° Southeast 166 191 15,000 49 Climbing Albuquerque Center
Mon 06:18:49 PM 34.4119 -105.7803 120° Southeast 172 198 15,000  Level Albuquerque Center
Mon 06:19:50 PM 34.3892 -105.7253 117° Southeast 178 205 15,000  Level Albuquerque Center
Mon 06:20:51 PM 34.3600 -105.6644 120° Southeast 178 205 15,000  Level Albuquerque Center
Mon 06:21:53 PM 34.3239 -105.6219 136° Southeast 177 204 15,000 -49 Level Albuquerque Center
Mon 06:22:54 PM 34.2831 -105.5867 144° Southeast 178 205 14,900 -49 Descending Albuquerque Center
Mon 06:23:56 PM 34.2472 -105.5494 139° Southeast 175 201 14,900 49 Level Albuquerque Center
Mon 06:24:57 PM 34.2111 -105.5108 139° Southeast 172 198 15,000 49 Climbing Albuquerque Center
Mon 06:25:59 PM 34.1731 -105.4731 141° Southeast 174 200 15,000  Level Albuquerque Center
Mon 06:27:00 PM 34.1353 -105.4344 140° Southeast 175 201 15,000  Level Albuquerque Center
Mon 06:28:02 PM 34.0969 -105.3958 140° Southeast 176 203 15,000  Level Albuquerque Center
Mon 06:29:03 PM 34.0603 -105.3569 139° Southeast 175 201 15,000  Level Albuquerque Center
Mon 06:30:05 PM 34.0225 -105.3178 139° Southeast 176 203 15,000  Level Albuquerque Center
Mon 06:31:06 PM 33.9861 -105.2803 139° Southeast 174 200 15,000  Level Albuquerque Center
Mon 06:32:08 PM 33.9411 -105.2347 140° Southeast 179 206 15,000  Level Albuquerque Center
Mon 06:33:09 PM 33.9028 -105.1972 141° Southeast 178 205 15,000  Level Albuquerque Center
Mon 06:34:11 PM 33.8639 -105.1578 140° Southeast 182 209 15,000  Level Albuquerque Center
Mon 06:35:12 PM 33.8222 -105.1131 138° Southeast 188 216 15,000  Level Albuquerque Center
Mon 06:36:14 PM 33.7850 -105.0747 139° Southeast 180 207 15,000  Level Albuquerque Center
Mon 06:37:15 PM 33.7461 -105.0350 140° Southeast 181 208 15,000  Level Albuquerque Center
Mon 06:38:17 PM 33.7061 -104.9950 140° Southeast 176 203 15,000  Level Albuquerque Center
Mon 06:39:18 PM 33.6672 -104.9558 140° Southeast 182 209 15,000  Level Albuquerque Center
Mon 06:40:20 PM 33.6297 -104.9169 139° Southeast 179 206 15,000  Level Albuquerque Center
Mon 06:41:21 PM 33.5883 -104.8747 140° Southeast 182 209 15,000  Level Albuquerque Center
Mon 06:42:22 PM 33.5500 -104.8358 140° Southeast 181 208 15,000  Level Albuquerque Center
Mon 06:43:24 PM 33.5122 -104.7981 140° Southeast 178 205 15,000  Level Albuquerque Center
Mon 06:44:25 PM 33.4700 -104.7561 140° Southeast 182 209 15,000  Level Albuquerque Center
Mon 06:45:27 PM 33.4331 -104.7178 139° Southeast 177 204 15,000  Level Albuquerque Center
Mon 06:46:28 PM 33.3947 -104.6786 140° Southeast 179 206 15,000  Level Albuquerque Center
Mon 06:47:30 PM 33.3550 -104.6383 140° Southeast 175 201 15,000  Level Albuquerque Center
Mon 06:48:31 PM 33.3217 -104.5975 134° Southeast 172 198 15,000  Level Albuquerque Center
Mon 06:49:33 PM 33.2975 -104.5531 123° Southeast 176 203 15,000  Level Albuquerque Center
Mon 06:50:34 PM 33.2719 -104.4908 116° Southeast 181 208 15,000  Level Albuquerque Center
Mon 06:51:36 PM 33.2486 -104.4433 120° Southeast 169 194 15,000  Level Albuquerque Center
Mon 06:52:37 PM 33.2211 -104.3908 122° Southeast 173 199 15,000  Level Albuquerque Center
Mon 06:53:38 PM 33.1964 -104.3417 121° Southeast 173 199 15,000  Level Albuquerque Center
Mon 06:54:40 PM 33.1719 -104.2925 121° Southeast 173 199 15,000  Level Albuquerque Center
Mon 06:55:41 PM 33.1447 -104.2397 122° Southeast 173 199 15,000  Level Albuquerque Center
Mon 06:56:42 PM 33.1206 -104.1903 120° Southeast 173 199 15,000  Level Albuquerque Center
Mon 06:57:44 PM 33.0953 -104.1411 122° Southeast 175 201 15,000  Level Albuquerque Center
Mon 06:58:45 PM 33.0694 -104.0917 122° Southeast 177 204 15,000  Level Albuquerque Center
Mon 06:59:46 PM 33.0419 -104.0381 121° Southeast 177 204 15,000  Level Albuquerque Center
Mon 07:00:47 PM 33.0183 -103.9886 120° Southeast 173 199 15,000  Level Albuquerque Center
Mon 07:01:49 PM 32.9925 -103.9414 123° Southeast 171 197 15,000  Level Albuquerque Center
Mon 07:02:50 PM 32.9664 -103.8892 121° Southeast 171 197 15,000  Level Albuquerque Center
Mon 07:03:51 PM 32.9408 -103.8408 122° Southeast 173 199 15,000  Level Albuquerque Center
Mon 07:04:53 PM 32.9144 -103.7906 122° Southeast 179 206 15,000  Level Albuquerque Center
Mon 07:05:54 PM 32.8881 -103.7400 122° Southeast 179 206 15,000  Level Albuquerque Center
Mon 07:06:55 PM 32.8639 -103.6950 123° Southeast 175 201 15,000 -49 Level Albuquerque Center
Mon 07:07:56 PM 32.8386 -103.6461 122° Southeast 173 199 14,900  Descending Albuquerque Center
Mon 07:08:58 PM 32.8122 -103.5967 122° Southeast 176 203 15,000  Climbing Albuquerque Center
Mon 07:09:59 PM 32.7872 -103.5483 122° Southeast 174 200 14,900  Descending Albuquerque Center
Mon 07:11:00 PM 32.7561 -103.4906 123° Southeast 173 199 15,000 49 Climbing Albuquerque Center
Mon 07:12:02 PM 32.7314 -103.4417 121° Southeast 173 199 15,000  Level Albuquerque Center
Mon 07:13:03 PM 32.7058 -103.3944 123° Southeast 172 198 15,000  Level Albuquerque Center
Mon 07:13:50 PM 32.6842 -103.3539 122° Southeast 173 199 15,000  Level Fort Worth Center
Mon 07:14:50 PM 32.6594 -103.3056 121° Southeast 173 199 15,000 -50 Level Fort Worth Center
Mon 07:15:50 PM 32.6322 -103.2592 125° Southeast 173 199 14,900  Descending Fort Worth Center
Mon 07:16:50 PM 32.6094 -103.2108 119° Southeast 173 199 15,000  Climbing Fort Worth Center
Mon 07:17:50 PM 32.5803 -103.1672 128° Southeast 173 199 14,900  Descending Fort Worth Center
Mon 07:18:50 PM 32.5533 -103.1186 123° Southeast 173 199 15,000  Climbing Fort Worth Center
Mon 07:19:50 PM 32.5261 -103.0725 125° Southeast 173 199 14,900  Descending Fort Worth Center
Mon 07:20:50 PM 32.4969 -103.0239 125° Southeast 173 199 15,000  Climbing Fort Worth Center
Mon 07:21:50 PM 32.4697 -102.9781 125° Southeast 173 199 14,900 -50 Descending Fort Worth Center
Mon 07:22:50 PM 32.4428 -102.9319 125° Southeast 173 199 14,900 50 Level Fort Worth Center
Mon 07:23:50 PM 32.4175 -102.8836 122° Southeast 173 199 15,000 50 Climbing Fort Worth Center
Mon 07:24:50 PM 32.3883 -102.8378 127° Southeast 173 199 15,000  Level Fort Worth Center
Mon 07:25:50 PM 32.3611 -102.7917 125° Southeast 173 199 15,000  Level Fort Worth Center
Mon 07:26:50 PM 32.3319 -102.7433 126° Southeast 173 199 15,000 -50 Level Fort Worth Center
Mon 07:27:50 PM 32.3047 -102.6950 124° Southeast 173 199 14,900  Descending Fort Worth Center
Mon 07:28:50 PM 32.2772 -102.6492 125° Southeast 173 199 15,000  Climbing Fort Worth Center
Mon 07:29:50 PM 32.2503 -102.6011 124° Southeast 173 199 14,900  Descending Fort Worth Center
Mon 07:30:50 PM 32.2247 -102.5578 125° Southeast 178 205 15,000  Climbing Fort Worth Center
Mon 07:31:50 PM 32.1975 -102.5097 124° Southeast 178 205 14,900  Descending Fort Worth Center
Mon 07:32:50 PM 32.1681 -102.4614 126° Southeast 178 205 15,000  Climbing Fort Worth Center
Mon 07:33:50 PM 32.1408 -102.4156 125° Southeast 178 205 14,900  Descending Fort Worth Center
Mon 07:34:50 PM 32.1133 -102.3700 125° Southeast 178 205 15,000 50 Climbing Fort Worth Center
Mon 07:35:50 PM 32.0883 -102.3197 120° Southeast 178 205 15,000  Level Fort Worth Center
Mon 07:36:50 PM 32.0589 -102.2714 126° Southeast 178 205 15,000  Level Fort Worth Center
Mon 07:37:50 PM 32.0314 -102.2258 125° Southeast 178 205 15,000 -50 Level Fort Worth Center
Mon 07:38:50 PM 32.0039 -102.1781 124° Southeast 178 205 14,900 -50 Descending Fort Worth Center
Mon 07:39:50 PM 31.9786 -102.1300 122° Southeast 178 205 14,900  Level Fort Worth Center
Mon 07:40:50 PM 31.9492 -102.0797 125° Southeast 173 199 14,900 50 Level Fort Worth Center
Mon 07:41:50 PM 31.9236 -102.0367 125° Southeast 173 199 15,000 50 Climbing Fort Worth Center
Mon 07:42:50 PM 31.8961 -101.9889 124° Southeast 173 199 15,000 -50 Level Fort Worth Center
Mon 07:43:50 PM 31.8667 -101.9386 125° Southeast 173 199 14,900 -50 Descending Fort Worth Center
Mon 07:44:50 PM 31.8392 -101.8906 124° Southeast 173 199 14,900  Level Fort Worth Center
Mon 07:45:50 PM 31.8117 -101.8406 123° Southeast 173 199 14,900  Level Fort Worth Center
Mon 07:46:50 PM 31.7842 -101.7928 124° Southeast 173 199 14,900  Level Fort Worth Center
Mon 07:47:50 PM 31.7564 -101.7475 126° Southeast 173 199 14,900  Level Fort Worth Center
Mon 07:48:50 PM 31.7308 -101.7022 124° Southeast 173 199 14,900 50 Level Fort Worth Center
Mon 07:49:50 PM 31.7014 -101.6519 125° Southeast 178 205 15,000  Climbing Fort Worth Center
Mon 07:50:50 PM 31.6736 -101.6069 126° Southeast 178 205 14,900 -50 Descending Fort Worth Center
Mon 07:51:50 PM 31.6461 -101.5567 123° Southeast 178 205 14,900  Level Fort Worth Center
Mon 07:52:50 PM 31.6183 -101.5117 126° Southeast 173 199 14,900 50 Level Fort Worth Center
Mon 07:53:50 PM 31.5886 -101.4617 125° Southeast 173 199 15,000  Climbing Fort Worth Center
Mon 07:54:50 PM 31.5608 -101.4164 126° Southeast 173 199 14,900  Descending Fort Worth Center
Mon 07:55:50 PM 31.5353 -101.3689 122° Southeast 173 199 15,000 50 Climbing Fort Worth Center
Mon 07:56:50 PM 31.5053 -101.3239 128° Southeast 173 199 15,000  Level Fort Worth Center
Mon 07:57:50 PM 31.4797 -101.2764 122° Southeast 178 205 15,000 -50 Level Fort Worth Center
Mon 07:58:50 PM 31.4519 -101.2292 125° Southeast 178 205 14,900  Descending Fort Worth Center
Mon 07:59:50 PM 31.4219 -101.1817 126° Southeast 178 205 15,000 50 Climbing Fort Worth Center
Mon 08:00:50 PM 31.3919 -101.1342 126° Southeast 173 199 15,000 -50 Level Fort Worth Center
Mon 08:01:50 PM 31.3661 -101.0894 124° Southeast 178 205 14,900 -63 Descending Fort Worth Center
Mon 08:02:25 PM 31.3503 -101.0608 123° Southeast 177 204 14,900 63 Level Houston Center
Mon 08:03:26 PM 31.3281 -101.0217 124° Southeast 176 203 15,000  Climbing Houston Center
Mon 08:04:28 PM 31.2942 -100.9647 125° Southeast 177 204 14,900  Descending Houston Center
Mon 08:05:30 PM 31.2669 -100.9183 124° Southeast 175 201 15,000 49 Climbing Houston Center
Mon 08:06:31 PM 31.2394 -100.8714 124° Southeast 175 201 15,000  Level Houston Center
Mon 08:07:33 PM 31.2114 -100.8244 125° Southeast 176 203 15,000  Level Houston Center
Mon 08:08:35 PM 31.1825 -100.7781 126° Southeast 177 204 15,000  Level Houston Center
Mon 08:09:36 PM 31.1550 -100.7322 125° Southeast 174 200 15,000  Level Houston Center
Mon 08:10:38 PM 31.1264 -100.6844 125° Southeast 178 205 15,000  Level Houston Center
Mon 08:11:40 PM 31.0925 -100.6283 125° Southeast 177 204 15,000  Level Houston Center
Mon 08:12:41 PM 31.0642 -100.5817 125° Southeast 177 204 15,000  Level Houston Center
Mon 08:13:43 PM 31.0358 -100.5336 125° Southeast 179 206 15,000  Level Houston Center
Mon 08:14:45 PM 31.0067 -100.4875 126° Southeast 178 205 15,000  Level Houston Center
Mon 08:15:47 PM 30.9794 -100.4394 123° Southeast 178 205 15,000  Level Houston Center
Mon 08:16:48 PM 30.9514 -100.3939 126° Southeast 175 201 15,000  Level Houston Center
Mon 08:17:50 PM 30.9242 -100.3469 124° Southeast 174 200 15,000  Level Houston Center
Mon 08:18:52 PM 30.8892 -100.2900 126° Southeast 179 206 15,000  Level Houston Center
Mon 08:19:54 PM 30.8600 -100.2431 126° Southeast 179 206 15,000  Level Houston Center
Mon 08:20:55 PM 30.8311 -100.1969 126° Southeast 177 204 15,000  Level Houston Center
Mon 08:21:57 PM 30.7919 -100.1647 145° Southeast 174 200 15,000  Level Houston Center
Mon 08:22:59 PM 30.7642 -100.1178 125° Southeast 180 207 15,000  Level Houston Center
Mon 08:24:00 PM 30.7497 -100.0625 107° East 179 206 15,000  Level Houston Center
Mon 08:25:02 PM 30.7336 -100.0075 109° East 180 207 15,000  Level Houston Center
Mon 08:26:04 PM 30.7147 -99.9542 112° Southeast 180 207 15,000  Level Houston Center
Mon 08:27:06 PM 30.6808 -99.8967 124° Southeast 179 206 15,000  Level Houston Center
Mon 08:28:07 PM 30.6542 -99.8467 122° Southeast 184 212 15,000  Level Houston Center
Mon 08:29:09 PM 30.6233 -99.8008 128° Southeast 181 208 15,000  Level Houston Center
Mon 08:30:11 PM 30.5917 -99.7567 130° Southeast 180 207 15,000  Level Houston Center
Mon 08:31:12 PM 30.5597 -99.7056 126° Southeast 176 203 15,000  Level Houston Center
Mon 08:32:14 PM 30.5325 -99.6639 127° Southeast 181 208 15,000  Level Houston Center
Mon 08:33:16 PM 30.5028 -99.6178 127° Southeast 179 206 15,000  Level Houston Center
Mon 08:34:18 PM 30.4672 -99.5619 126° Southeast 180 207 15,000  Level Houston Center
Mon 08:35:19 PM 30.4369 -99.5161 127° Southeast 179 206 15,000  Level Houston Center
Mon 08:36:21 PM 30.4075 -99.4697 126° Southeast 178 205 15,000  Level Houston Center
Mon 08:37:23 PM 30.3767 -99.4231 127° Southeast 181 208 15,000  Level Houston Center
Mon 08:38:25 PM 30.3472 -99.3772 127° Southeast 179 206 15,000  Level Houston Center
Mon 08:39:26 PM 30.3175 -99.3303 126° Southeast 181 208 15,000  Level Houston Center
Mon 08:40:28 PM 30.2875 -99.2844 127° Southeast 179 206 15,000 -387 Level Houston Center
Mon 08:41:30 PM 30.2553 -99.2356 127° Southeast 189 217 14,200 -878 Descending Houston Center
Mon 08:42:31 PM 30.2119 -99.1714 128° Southeast 209 241 13,200 -878 Descending Houston Center
Mon 08:43:33 PM 30.1769 -99.1175 127° Southeast 210 242 12,400 -774 Descending Houston Center
Mon 08:44:35 PM 30.1406 -99.0619 127° Southeast 209 241 11,600 -732 Descending Houston Center
Mon 08:45:36 PM 30.1033 -99.0064 128° Southeast 203 234 10,900 -732 Descending Houston Center
Mon 08:46:38 PM 30.0700 -98.9542 126° Southeast 201 231 10,100 -774 Descending Houston Center
Mon 08:47:40 PM 30.0364 -98.9033 127° Southeast 200 230 9,300 -732 Descending Houston Center
Mon 08:48:41 PM 30.0017 -98.8508 127° Southeast 192 221 8,600 -683 Descending Houston Center
Mon 08:49:43 PM 29.9700 -98.8019 127° Southeast 190 219 7,900 -677 Descending Houston Center
Mon 08:50:45 PM 29.9400 -98.7542 126° Southeast 186 214 7,200 -829 Descending Houston Center
Mon 08:51:46 PM 29.9061 -98.7058 129° Southeast 180 207 6,200 -732 Descending Houston Center
Mon 08:52:48 PM 29.8758 -98.6583 126° Southeast 176 203 5,700 -484 Descending Houston Center
Mon 08:54:00 PM 29.8394 -98.6050 128° Southeast  Level FlightAware Approximate
Mon 09:01:00 PM 29.7333 -98.4500 North  Level FlightAware Approximate
Mon 09:02:00 PM 29.7391 -98.4511 North  Level Estimated

Login

Don't have an account? Register now (free) for customized features, flight alerts, and more!